Etusivu
METAR-TAF:

METAR-TAF

Lentoasemat :

Charles M. Schulz - Sonoma County Airport

Santa Rosa, Kalifornia, Yhdysvallat

Leveyspiiri: 38-30-00N, Pituuspiiri: 122-49-00W, korkeus merenpinnasta: 38 m

Tämänhetkinen sää

Tämä raportti tehtiin 55 minuuttia sitten, kello 07.53 UTC
Tuuli 3 kn etelästä
Lämpötila 14°C
Kosteus 88%
Ilmanpaine 1011 hPa
Näkyvyys: 14.5 km
selkeää

METAR: KSTS 170753Z AUTO 18003KT 9SM CLR 14/12 A2985 RMK AO2 SLP102 T01390117 403440128

Aika: 01:48 (08:48 UTC)

Sääennuste

Tämä raportti tehtiin 2 tuntia ja 58 minuuttia sitten, kello 05.50 UTC
Ennuste voimassa 17. päivästä klo 06 UTC - 18. päivään klo 06 UTC
Tuuli 5 kn etelästä/kaakosta
Näkyvyys: 10 km
selkeää
From 17. päivästä klo 1000 UTC
Tuuli 8 kn luoteesta
Näkyvyys: 10 km
selkeää
From 17. päivästä klo 1800 UTC
Tuuli 8 kn lännestä/luoteesta
Näkyvyys: 10 km
selkeää

TAF: KSTS 170550Z 1706/1806 16005KT P6SM SKC FM171000 32008KT P6SM SKC FM171800 29008KT P6SM SKC

Säähavainnot ja -ennusteet yli 4000 lentoasemalta (METAR- ja TAF-raportit).

Käytössä olevat sääasemat on merkitty karttaan keltaisilla ja punaisilla pisteillä.

Aseta hiiri pisteen päälle nähdäksesi sääaseman nimen.

Klikkaa sitten nähdäksesi säähavainnot ja -ennusteet.

Kartan vaihtaminen: klikkaa mustalla rastilla varustettuja vihreitä pisteitä, niin voit zoomata sisään; viivalla varustettua vihreää pistettä, niin voit zoomata ulos tai vihreitä nuolia, niin pääset viereisille kartoille.


METAR-TAF: